Time;durP1;ratioP1;P1;durP2;ratioP2;P2;SDS_P1;SDS_P2;PMS_P1;PMS_P2;Temp;Humidity;BMP_temperature;BMP_pressure;BME280_temperature;BME280_humidity;BME280_pressure;Samples;Min_cycle;Max_cycle;Signal;HPM_P1;HPM_P2
2023/01/24 00:01:16;;;;;;;4.93;4.63;;;;;;;;;;6276714;28;20032;-77
2023/01/24 00:04:16;;;;;;;5.37;4.87;;;;;;;;;;6286270;28;20024;-78
2023/01/24 00:07:16;;;;;;;4.50;4.17;;;;;;;;;;6277865;28;20070;-78
2023/01/24 00:10:16;;;;;;;12.30;4.57;;;;;;;;;;6278701;28;20020;-78
2023/01/24 00:13:17;;;;;;;4.80;4.40;;;;;;;;;;6295772;28;20027;-78
2023/01/24 00:16:18;;;;;;;1.20;1.20;;;;;;;;;;6271975;28;20020;-78
2023/01/24 00:19:19;;;;;;;6.35;5.85;;;;;;;;;;6288985;28;20017;-77
2023/01/24 00:22:19;;;;;;;3.67;3.47;;;;;;;;;;6296030;28;20020;-77
2023/01/24 00:25:19;;;;;;;0.50;0.50;;;;;;;;;;6296734;28;20052;-77
2023/01/24 00:28:19;;;;;;;2.88;2.67;;;;;;;;;;6278950;28;20495;-77
2023/01/24 00:31:19;;;;;;;4.70;4.40;;;;;;;;;;6290687;28;20119;-76
2023/01/24 00:34:20;;;;;;;0.60;0.60;;;;;;;;;;6319684;28;20381;-76
2023/01/24 00:37:20;;;;;;;17.37;7.70;;;;;;;;;;6318996;28;20008;-77
2023/01/24 00:40:20;;;;;;;2.50;2.20;;;;;;;;;;6316546;28;20364;-77
2023/01/24 00:43:20;;;;;;;3.33;3.03;;;;;;;;;;6310970;28;20361;-77
2023/01/24 00:46:20;;;;;;;6.40;5.90;;;;;;;;;;6308258;28;20115;-76
2023/01/24 00:49:21;;;;;;;5.97;2.80;;;;;;;;;;6315051;28;20091;-77
2023/01/24 00:52:21;;;;;;;2.47;2.30;;;;;;;;;;6316641;28;20016;-77
2023/01/24 00:55:21;;;;;;;1.88;1.80;;;;;;;;;;6320526;28;20037;-77
2023/01/24 00:58:21;;;;;;;3.77;3.07;;;;;;;;;;6317486;28;20020;-77
2023/01/24 01:01:22;;;;;;;4.33;4.03;;;;;;;;;;6319000;28;20043;-77
2023/01/24 01:04:22;;;;;;;5.47;4.83;;;;;;;;;;6320377;28;20073;-77
2023/01/24 01:07:22;;;;;;;6.53;3.40;;;;;;;;;;6313467;28;20061;-77
2023/01/24 01:10:23;;;;;;;0.77;0.77;;;;;;;;;;6315238;28;20012;-76
2023/01/24 01:13:23;;;;;;;4.47;4.03;;;;;;;;;;6318006;28;20023;-76
2023/01/24 01:16:24;;;;;;;3.33;3.13;;;;;;;;;;6314826;28;20131;-76
2023/01/24 01:19:24;;;;;;;23.10;6.13;;;;;;;;;;6310016;28;20024;-77
2023/01/24 01:22:24;;;;;;;6.13;3.10;;;;;;;;;;6311897;28;20024;-77
2023/01/24 01:25:24;;;;;;;6.60;5.93;;;;;;;;;;6304696;28;20099;-76
2023/01/24 01:28:24;;;;;;;7.47;5.63;;;;;;;;;;6321507;28;20027;-77
2023/01/24 01:31:25;;;;;;;8.98;2.28;;;;;;;;;;6290461;28;20029;-77
2023/01/24 01:34:25;;;;;;;5.03;4.60;;;;;;;;;;6272530;28;20055;-77
2023/01/24 01:37:25;;;;;;;3.50;3.30;;;;;;;;;;6255122;28;20494;-77
2023/01/24 01:40:25;;;;;;;1.50;1.50;;;;;;;;;;6288524;28;20009;-77
2023/01/24 01:43:28;;;;;;;3.77;3.57;;;;;;;;;;6278096;28;20374;-76
2023/01/24 01:46:33;;;;;;;2.97;2.78;;;;;;;;;;6284010;28;20493;-76
2023/01/24 01:49:33;;;;;;;5.18;3.08;;;;;;;;;;6264782;28;20047;-76
2023/01/24 01:52:38;;;;;;;2.87;2.03;;;;;;;;;;6267455;28;20378;-76
2023/01/24 01:55:40;;;;;;;1.80;1.77;;;;;;;;;;6286479;28;20024;-77
2023/01/24 01:58:41;;;;;;;8.05;7.30;;;;;;;;;;6287545;28;20075;-77
2023/01/24 02:01:41;;;;;;;2.73;1.90;;;;;;;;;;6276957;28;20028;-77
2023/01/24 02:04:45;;;;;;;2.80;2.60;;;;;;;;;;6282824;28;20343;-76
2023/01/24 02:07:49;;;;;;;2.38;2.22;;;;;;;;;;6272339;28;20112;-76
2023/01/24 02:17:30;;;;;;;3.42;3.25;;;;;;;;;;6282784;28;20028;-76
2023/01/24 02:20:30;;;;;;;7.03;4.87;;;;;;;;;;6292903;28;20023;-76
2023/01/24 02:23:36;;;;;;;4.20;3.90;;;;;;;;;;6294564;28;20455;-76
2023/01/24 02:26:36;;;;;;;5.72;5.32;;;;;;;;;;6276855;28;20039;-76
2023/01/24 02:29:36;;;;;;;2.43;2.23;;;;;;;;;;6287331;28;20373;-76
2023/01/24 02:32:36;;;;;;;0.30;0.30;;;;;;;;;;6280856;28;20067;-76
2023/01/24 02:35:37;;;;;;;3.57;3.17;;;;;;;;;;6299089;28;20009;-76
2023/01/24 02:38:38;;;;;;;4.03;3.73;;;;;;;;;;6297782;28;20015;-76
2023/01/24 02:41:42;;;;;;;1.48;1.48;;;;;;;;;;6296706;28;20016;-76
2023/01/24 02:45:03;;;;;;;4.60;3.35;;;;;;;;;;6278289;28;20017;-76
2023/01/24 02:48:04;;;;;;;0.68;0.68;;;;;;;;;;6293780;28;20044;-76
2023/01/24 02:54:23;;;;;;;5.18;4.70;;;;;;;;;;6293759;28;20088;-77
2023/01/24 03:00:42;;;;;;;3.30;2.90;;;;;;;;;;6298024;28;20476;-76
2023/01/24 03:03:43;;;;;;;2.03;1.92;;;;;;;;;;6280555;28;20070;-77
2023/01/24 03:06:43;;;;;;;13.37;5.37;;;;;;;;;;6297694;28;20025;-77
2023/01/24 03:09:46;;;;;;;4.30;3.93;;;;;;;;;;6280337;28;20108;-77
2023/01/24 03:36:01;;;;;;;0.38;0.38;;;;;;;;;;6284675;28;20024;-77
2023/01/24 03:42:20;;;;;;;1.40;1.40;;;;;;;;;;6286596;28;20028;-77
2023/01/24 03:45:25;;;;;;;2.42;2.33;;;;;;;;;;6278097;28;20503;-77
2023/01/24 03:48:34;;;;;;;1.02;1.02;;;;;;;;;;6277402;28;20135;-77
2023/01/24 03:54:54;;;;;;;5.63;5.25;;;;;;;;;;6290279;28;20024;-76
2023/01/24 03:57:54;;;;;;;4.40;2.07;;;;;;;;;;6273312;28;20019;-76
2023/01/24 04:00:54;;;;;;;5.60;2.75;;;;;;;;;;6296842;28;20012;-76
2023/01/24 04:03:55;;;;;;;0.53;0.53;;;;;;;;;;6279270;28;20048;-76
2023/01/24 04:06:55;;;;;;;2.53;2.38;;;;;;;;;;6278274;28;20024;-77
2023/01/24 04:09:55;;;;;;;4.90;4.00;;;;;;;;;;6296084;28;20025;-76
2023/01/24 04:12:55;;;;;;;1.83;1.73;;;;;;;;;;6296423;28;20016;-76
2023/01/24 04:15:56;;;;;;;2.57;2.47;;;;;;;;;;6295132;28;20048;-76
2023/01/24 04:18:56;;;;;;;3.07;2.77;;;;;;;;;;6275690;28;20107;-76
2023/01/24 04:21:58;;;;;;;7.13;3.70;;;;;;;;;;6291660;28;20025;-76
2023/01/24 04:24:58;;;;;;;5.07;4.70;;;;;;;;;;6295731;28;20021;-76
2023/01/24 04:27:58;;;;;;;2.65;2.45;;;;;;;;;;6275500;28;20017;-77
2023/01/24 04:30:59;;;;;;;13.60;3.83;;;;;;;;;;6289814;28;20048;-75
2023/01/24 04:33:59;;;;;;;7.90;3.10;;;;;;;;;;6288936;28;20073;-76
2023/01/24 04:36:59;;;;;;;1.73;1.63;;;;;;;;;;6290093;28;20005;-76
2023/01/24 04:40:03;;;;;;;1.67;1.58;;;;;;;;;;6294768;28;20032;-76
2023/01/24 04:43:03;;;;;;;2.10;1.98;;;;;;;;;;6289040;28;20074;-76
2023/01/24 04:46:03;;;;;;;2.33;1.73;;;;;;;;;;6274858;28;20013;-77
2023/01/24 04:49:03;;;;;;;6.13;4.55;;;;;;;;;;6294151;28;20052;-76
2023/01/24 04:52:04;;;;;;;1.35;1.35;;;;;;;;;;6274897;28;20040;-76
2023/01/24 04:55:04;;;;;;;2.00;1.90;;;;;;;;;;6291522;28;20021;-76
2023/01/24 04:58:04;;;;;;;1.50;1.50;;;;;;;;;;6278280;28;20415;-76
2023/01/24 05:01:04;;;;;;;0.45;0.45;;;;;;;;;;6277498;28;20123;-76
2023/01/24 05:04:05;;;;;;;0.97;0.97;;;;;;;;;;6274479;28;20099;-76
2023/01/24 05:07:05;;;;;;;6.83;2.63;;;;;;;;;;6277214;28;20085;-76
2023/01/24 05:10:06;;;;;;;1.87;1.77;;;;;;;;;;6286272;28;20029;-76
2023/01/24 05:13:06;;;;;;;2.40;2.30;;;;;;;;;;6277439;28;20052;-76
2023/01/24 05:16:06;;;;;;;2.75;2.55;;;;;;;;;;6275121;28;20074;-77
2023/01/24 05:19:06;;;;;;;0.43;0.43;;;;;;;;;;6290065;28;20524;-77
2023/01/24 05:22:07;;;;;;;0.80;0.80;;;;;;;;;;6291483;28;20020;-77
2023/01/24 05:25:07;;;;;;;2.23;2.13;;;;;;;;;;6267818;28;20040;-77
2023/01/24 05:28:07;;;;;;;2.47;2.33;;;;;;;;;;6273009;28;20111;-77
2023/01/24 05:31:08;;;;;;;2.23;2.13;;;;;;;;;;6292370;28;20048;-76
2023/01/24 05:34:08;;;;;;;0.97;0.97;;;;;;;;;;6276464;28;20052;-76
2023/01/24 05:37:08;;;;;;;3.50;3.00;;;;;;;;;;6274517;28;20024;-77
2023/01/24 05:40:09;;;;;;;2.67;2.47;;;;;;;;;;6278189;28;20131;-76
2023/01/24 05:43:09;;;;;;;2.53;2.00;;;;;;;;;;6294152;28;20024;-76
2023/01/24 05:46:10;;;;;;;2.00;1.90;;;;;;;;;;6294692;28;20074;-77
2023/01/24 05:49:10;;;;;;;1.58;1.48;;;;;;;;;;6273104;28;20024;-76
2023/01/24 05:52:11;;;;;;;0.57;0.57;;;;;;;;;;6285048;28;20051;-76
2023/01/24 05:55:11;;;;;;;0.82;0.73;;;;;;;;;;6272946;28;20020;-76
2023/01/24 05:58:11;;;;;;;2.20;2.00;;;;;;;;;;6288915;28;20499;-76
2023/01/24 06:01:13;;;;;;;0.75;0.75;;;;;;;;;;6293522;28;20020;-76
2023/01/24 06:04:13;;;;;;;;;;;;;;;;;;6277032;28;20111;-76
2023/01/24 06:07:13;;;;;;;1.10;1.10;;;;;;;;;;6278048;28;19911;-76
2023/01/24 06:10:13;;;;;;;1.73;1.50;;;;;;;;;;6291269;28;20020;-76
2023/01/24 06:13:14;;;;;;;3.37;3.00;;;;;;;;;;6285183;28;20021;-76
2023/01/24 06:16:18;;;;;;;0.40;0.40;;;;;;;;;;6281403;28;20052;-76
2023/01/24 06:19:19;;;;;;;1.63;1.58;;;;;;;;;;6280891;28;20095;-76
2023/01/24 06:22:23;;;;;;;0.93;0.93;;;;;;;;;;6291333;28;20058;-76
2023/01/24 06:25:24;;;;;;;1.83;1.63;;;;;;;;;;6278751;28;20032;-76
2023/01/24 06:28:24;;;;;;;1.02;1.00;;;;;;;;;;6281253;28;20027;-76
2023/01/24 06:31:33;;;;;;;0.73;0.73;;;;;;;;;;6293620;28;20389;-76
2023/01/24 06:34:40;;;;;;;2.25;2.05;;;;;;;;;;6320716;28;20096;-76
2023/01/24 06:37:43;;;;;;;3.67;2.08;;;;;;;;;;6319305;28;20103;-76
2023/01/24 06:40:43;;;;;;;1.52;1.42;;;;;;;;;;6321124;28;20016;-76
2023/01/24 06:43:44;;;;;;;3.10;2.93;;;;;;;;;;6320959;28;20553;-76
2023/01/24 06:46:44;;;;;;;0.70;0.70;;;;;;;;;;6316141;28;20016;-75
2023/01/24 06:49:44;;;;;;;3.20;1.33;;;;;;;;;;6315939;28;20461;-75
2023/01/24 06:52:48;;;;;;;2.08;1.77;;;;;;;;;;6323428;28;20024;-77
2023/01/24 06:55:48;;;;;;;2.05;1.95;;;;;;;;;;6314479;28;20016;-76
2023/01/24 06:58:48;;;;;;;1.10;1.03;;;;;;;;;;6321678;28;20088;-76
2023/01/24 07:01:49;;;;;;;3.73;1.50;;;;;;;;;;6322390;28;20028;-76
2023/01/24 07:04:49;;;;;;;1.80;1.70;;;;;;;;;;6321757;28;20028;-75
2023/01/24 07:07:49;;;;;;;1.83;1.75;;;;;;;;;;6322491;28;20107;-75
2023/01/24 07:10:49;;;;;;;1.80;1.73;;;;;;;;;;6315966;28;20074;-76
2023/01/24 07:13:50;;;;;;;1.27;1.27;;;;;;;;;;6323832;28;20440;-76
2023/01/24 07:16:50;;;;;;;0.85;0.85;;;;;;;;;;6320235;28;20015;-77
2023/01/24 07:19:51;;;;;;;1.93;1.87;;;;;;;;;;6322620;28;20095;-76
2023/01/24 07:22:51;;;;;;;2.53;2.33;;;;;;;;;;6318839;28;20028;-76
2023/01/24 07:25:52;;;;;;;5.27;4.77;;;;;;;;;;6312590;28;20028;-76
2023/01/24 07:28:52;;;;;;;0.50;0.50;;;;;;;;;;6317204;28;20111;-76
2023/01/24 07:31:52;;;;;;;1.60;1.48;;;;;;;;;;6322225;28;20056;-76
2023/01/24 07:34:52;;;;;;;2.33;2.23;;;;;;;;;;6320464;28;20027;-76
2023/01/24 07:37:54;;;;;;;2.40;2.30;;;;;;;;;;6318504;28;20009;-76
2023/01/24 07:40:54;;;;;;;4.82;4.38;;;;;;;;;;6320732;28;20016;-76
2023/01/24 07:43:55;;;;;;;3.00;2.90;;;;;;;;;;6321619;28;20023;-76
2023/01/24 07:46:55;;;;;;;7.47;3.63;;;;;;;;;;6319340;28;20031;-76
2023/01/24 07:49:56;;;;;;;2.70;2.47;;;;;;;;;;6314665;28;20016;-76
2023/01/24 07:52:57;;;;;;;2.97;2.83;;;;;;;;;;6317607;28;20032;-76
2023/01/24 07:56:00;;;;;;;9.13;7.43;;;;;;;;;;6317718;28;20128;-76
2023/01/24 07:59:01;;;;;;;0.50;0.50;;;;;;;;;;6319115;28;20547;-76
2023/01/24 08:02:01;;;;;;;3.70;3.40;;;;;;;;;;6313996;28;20024;-76
2023/01/24 08:05:01;;;;;;;3.77;3.53;;;;;;;;;;6321188;28;20031;-76
2023/01/24 08:08:01;;;;;;;3.40;3.20;;;;;;;;;;6316844;28;20031;-76
2023/01/24 08:11:02;;;;;;;1.40;1.30;;;;;;;;;;6313697;28;20024;-76
2023/01/24 08:14:02;;;;;;;2.80;2.63;;;;;;;;;;6313363;28;20186;-76
2023/01/24 08:17:02;;;;;;;6.90;4.60;;;;;;;;;;6315922;28;20103;-76
2023/01/24 08:20:02;;;;;;;2.60;2.50;;;;;;;;;;6315424;28;20016;-76
2023/01/24 08:23:03;;;;;;;1.53;1.53;;;;;;;;;;6309852;28;20016;-76
2023/01/24 08:26:05;;;;;;;2.63;2.53;;;;;;;;;;6317282;28;20108;-76
2023/01/24 08:29:05;;;;;;;6.80;3.97;;;;;;;;;;6312251;28;20027;-76
2023/01/24 08:32:06;;;;;;;3.60;3.27;;;;;;;;;;6292956;28;20049;-76
2023/01/24 08:35:06;;;;;;;0.20;0.20;;;;;;;;;;6272949;28;20078;-76
2023/01/24 08:38:06;;;;;;;1.87;1.80;;;;;;;;;;6277777;28;20016;-76
2023/01/24 08:41:07;;;;;;;1.40;1.40;;;;;;;;;;6277634;28;20060;-76
2023/01/24 08:44:07;;;;;;;5.00;4.60;;;;;;;;;;6277857;28;20054;-76
2023/01/24 08:47:08;;;;;;;5.70;4.67;;;;;;;;;;6294591;28;20028;-76
2023/01/24 08:50:09;;;;;;;2.97;2.77;;;;;;;;;;6282612;28;20420;-76
2023/01/24 08:53:09;;;;;;;4.70;2.53;;;;;;;;;;6288837;28;20028;-76
2023/01/24 08:56:09;;;;;;;3.10;2.70;;;;;;;;;;6287733;28;20107;-76
2023/01/24 08:59:09;;;;;;;1.98;1.92;;;;;;;;;;6282066;28;20020;-76
2023/01/24 09:02:12;;;;;;;4.10;2.87;;;;;;;;;;6266059;28;20557;-76
2023/01/24 09:05:13;;;;;;;1.55;1.48;;;;;;;;;;6280811;28;20017;-76
2023/01/24 09:08:14;;;;;;;6.43;4.77;;;;;;;;;;6287217;28;20063;-76
2023/01/24 09:11:14;;;;;;;1.00;1.00;;;;;;;;;;6282697;28;20035;-76
2023/01/24 09:14:14;;;;;;;2.60;2.50;;;;;;;;;;6288285;28;20063;-76
2023/01/24 09:17:14;;;;;;;6.10;3.40;;;;;;;;;;6287926;28;20123;-76
2023/01/24 09:20:15;;;;;;;2.17;2.07;;;;;;;;;;6264450;28;20103;-76
2023/01/24 09:23:15;;;;;;;2.33;2.23;;;;;;;;;;6287668;28;20021;-76
2023/01/24 09:26:15;;;;;;;6.10;5.47;;;;;;;;;;6280936;28;20066;-76
2023/01/24 09:29:15;;;;;;;25.52;5.85;;;;;;;;;;6271321;28;20024;-76
2023/01/24 09:32:16;;;;;;;6.17;5.67;;;;;;;;;;6281306;28;20122;-76
2023/01/24 09:35:16;;;;;;;0.50;0.50;;;;;;;;;;6289688;28;20134;-77
2023/01/24 09:38:17;;;;;;;1.03;1.03;;;;;;;;;;6269620;28;20468;-76
2023/01/24 09:41:40;;;;;;;0.97;0.97;;;;;;;;;;6281472;28;20016;-76
2023/01/24 09:44:56;;;;;;;2.17;2.08;;;;;;;;;;6258038;28;20071;-76
2023/01/24 09:47:58;;;;;;;3.92;3.50;;;;;;;;;;6259336;28;20012;-76
2023/01/24 09:51:01;;;;;;;4.65;4.35;;;;;;;;;;6270985;28;20016;-76
2023/01/24 09:54:03;;;;;;;9.95;2.35;;;;;;;;;;6281872;28;20392;-76
2023/01/24 09:57:11;;;;;;;3.22;2.97;;;;;;;;;;6285168;28;20528;-76
2023/01/24 10:00:21;;;;;;;2.05;1.95;;;;;;;;;;6281742;28;20507;-76
2023/01/24 10:03:22;;;;;;;0.90;0.90;;;;;;;;;;6264213;28;20049;-76
2023/01/24 10:06:24;;;;;;;3.13;2.97;;;;;;;;;;6277913;28;20063;-76
2023/01/24 10:09:44;;;;;;;3.45;3.20;;;;;;;;;;6265468;28;20535;-76
2023/01/24 10:13:00;;;;;;;4.45;4.20;;;;;;;;;;6251098;28;20397;-76
2023/01/24 10:16:03;;;;;;;1.13;1.13;;;;;;;;;;6273095;28;20021;-76
2023/01/24 10:19:21;;;;;;;4.55;4.28;;;;;;;;;;6285610;28;20032;-77
2023/01/24 10:22:28;;;;;;;5.15;3.40;;;;;;;;;;6264216;28;20099;-76
2023/01/24 10:25:40;;;;;;;3.15;2.47;;;;;;;;;;6273691;28;20029;-76
2023/01/24 10:28:43;;;;;;;2.97;2.72;;;;;;;;;;6270462;28;20365;-76
2023/01/24 10:31:58;;;;;;;3.00;2.75;;;;;;;;;;6289981;28;20819;-75
2023/01/24 10:35:21;;;;;;;4.28;3.42;;;;;;;;;;6308538;28;20232;-75
2023/01/24 10:38:22;;;;;;;2.72;2.47;;;;;;;;;;6307140;28;20499;-77
2023/01/24 10:41:23;;;;;;;2.73;2.53;;;;;;;;;;6308801;28;20017;-76
2023/01/24 10:44:27;;;;;;;8.43;7.63;;;;;;;;;;6314387;28;20020;-77
2023/01/24 10:47:46;;;;;;;4.70;2.83;;;;;;;;;;6312392;28;20110;-76
2023/01/24 10:50:47;;;;;;;1.58;1.50;;;;;;;;;;6318248;28;20028;-77
2023/01/24 10:53:47;;;;;;;5.23;4.80;;;;;;;;;;6312068;28;20012;-77
2023/01/24 10:56:48;;;;;;;5.73;2.63;;;;;;;;;;6319441;28;20016;-76
2023/01/24 10:59:48;;;;;;;2.40;2.27;;;;;;;;;;6322166;28;20012;-76
2023/01/24 11:02:49;;;;;;;1.23;1.23;;;;;;;;;;6322140;28;20479;-76
2023/01/24 11:05:51;;;;;;;1.48;1.38;;;;;;;;;;6322467;28;20031;-76
2023/01/24 11:08:55;;;;;;;7.07;3.22;;;;;;;;;;6320850;28;20123;-77
2023/01/24 11:11:56;;;;;;;3.17;2.97;;;;;;;;;;6319038;28;20059;-76
2023/01/24 11:14:56;;;;;;;2.63;2.50;;;;;;;;;;6319690;28;20020;-76
2023/01/24 11:18:20;;;;;;;4.33;2.83;;;;;;;;;;6319346;28;20031;-77
2023/01/24 11:21:20;;;;;;;1.67;1.58;;;;;;;;;;6307675;28;20062;-76
2023/01/24 11:24:21;;;;;;;2.20;1.93;;;;;;;;;;6315695;28;20488;-77
2023/01/24 11:27:21;;;;;;;2.42;2.22;;;;;;;;;;6320558;28;20020;-77
2023/01/24 11:30:22;;;;;;;1.87;1.77;;;;;;;;;;6314818;28;20097;-76
2023/01/24 11:33:50;;;;;;;2.50;2.10;;;;;;;;;;6279534;28;20013;-76
2023/01/24 11:36:53;;;;;;;2.10;2.00;;;;;;;;;;6270182;28;20047;-76
2023/01/24 11:40:00;;;;;;;1.08;1.08;;;;;;;;;;6298487;28;20593;-76
2023/01/24 11:43:03;;;;;;;0.63;0.63;;;;;;;;;;6270455;28;20028;-76
2023/01/24 11:46:12;;;;;;;5.78;2.55;;;;;;;;;;6291798;28;20025;-75
2023/01/24 11:49:28;;;;;;;3.13;1.95;;;;;;;;;;6290200;28;20017;-76
2023/01/24 11:53:01;;;;;;;2.03;1.95;;;;;;;;;;6274176;28;20027;-76
2023/01/24 11:56:07;;;;;;;5.93;1.95;;;;;;;;;;6257900;28;20017;-76
2023/01/24 11:59:25;;;;;;;2.97;2.78;;;;;;;;;;6293212;28;20079;-76
2023/01/24 12:02:31;;;;;;;2.22;2.03;;;;;;;;;;6296492;28;20021;-76
2023/01/24 12:05:36;;;;;;;2.45;2.25;;;;;;;;;;6290128;28;20065;-76
2023/01/24 12:08:36;;;;;;;1.15;1.15;;;;;;;;;;6290308;28;20025;-76
2023/01/24 12:11:42;;;;;;;1.77;1.67;;;;;;;;;;6277941;28;20090;-76
2023/01/24 12:14:45;;;;;;;0.95;0.95;;;;;;;;;;6294067;28;20012;-76
2023/01/24 12:17:52;;;;;;;1.75;1.65;;;;;;;;;;6278708;28;20016;-77
2023/01/24 12:20:59;;;;;;;2.10;1.95;;;;;;;;;;6272392;28;20052;-76
2023/01/24 12:24:05;;;;;;;0.40;0.40;;;;;;;;;;6295648;28;20141;-76
2023/01/24 12:27:08;;;;;;;1.30;1.20;;;;;;;;;;6292472;28;20447;-76
2023/01/24 12:30:11;;;;;;;1.95;1.85;;;;;;;;;;6272761;28;20040;-76
2023/01/24 12:33:17;;;;;;;2.30;2.15;;;;;;;;;;6293605;28;20023;-76
2023/01/24 12:36:36;;;;;;;3.65;2.78;;;;;;;;;;6274740;28;20017;-76
2023/01/24 12:39:41;;;;;;;1.27;1.27;;;;;;;;;;6277276;28;20047;-77
2023/01/24 12:42:48;;;;;;;0.50;0.50;;;;;;;;;;6295153;28;20024;-76
2023/01/24 12:45:54;;;;;;;4.47;4.03;;;;;;;;;;6277346;28;20365;-76
2023/01/24 12:49:13;;;;;;;2.35;1.33;;;;;;;;;;6293139;28;20095;-76
2023/01/24 12:52:19;;;;;;;1.48;1.38;;;;;;;;;;6293362;28;20028;-76
2023/01/24 12:55:24;;;;;;;1.60;1.45;;;;;;;;;;6274849;28;20016;-76
2023/01/24 12:58:30;;;;;;;0.32;0.32;;;;;;;;;;6290938;28;20016;-77
2023/01/24 13:01:39;;;;;;;0.88;0.88;;;;;;;;;;6271333;28;20012;-77
2023/01/24 13:04:42;;;;;;;0.88;0.82;;;;;;;;;;6287384;28;20017;-76
2023/01/24 13:07:42;;;;;;;3.70;3.42;;;;;;;;;;6273886;28;20161;-76
2023/01/24 13:11:00;;;;;;;3.10;2.90;;;;;;;;;;6289961;28;20350;-76
2023/01/24 13:14:04;;;;;;;0.40;0.40;;;;;;;;;;6272221;28;20033;-76
2023/01/24 13:17:17;;;;;;;3.42;3.15;;;;;;;;;;6276634;28;20028;-77
2023/01/24 13:20:36;;;;;;;4.68;4.10;;;;;;;;;;6292946;28;20063;-77
2023/01/24 13:23:39;;;;;;;6.68;6.05;;;;;;;;;;6293527;28;20020;-76
2023/01/24 13:26:58;;;;;;;1.65;1.58;;;;;;;;;;6293930;28;20020;-76
2023/01/24 13:30:05;;;;;;;1.23;1.23;;;;;;;;;;6290047;28;20077;-77
2023/01/24 13:33:05;;;;;;;1.27;1.25;;;;;;;;;;6274848;28;20039;-76
2023/01/24 13:36:07;;;;;;;;;;;;;;;;;;6271576;28;20055;-76
2023/01/24 13:39:27;;;;;;;4.68;3.70;;;;;;;;;;6271619;28;19908;-76
2023/01/24 13:42:37;;;;;;;1.63;1.52;;;;;;;;;;6287575;28;20044;-76
2023/01/24 13:45:40;;;;;;;0.63;0.63;;;;;;;;;;6276357;28;20020;-76
2023/01/24 13:48:41;;;;;;;2.45;2.15;;;;;;;;;;6268891;28;20035;-76
2023/01/24 13:51:42;;;;;;;0.43;0.43;;;;;;;;;;6282839;28;20028;-76
2023/01/24 13:54:43;;;;;;;0.55;0.55;;;;;;;;;;6276489;28;20016;-75
2023/01/24 13:57:44;;;;;;;2.43;2.00;;;;;;;;;;6264199;28;20456;-77
2023/01/24 14:00:44;;;;;;;1.50;1.40;;;;;;;;;;6271670;28;20031;-76
2023/01/24 14:03:55;;;;;;;1.90;1.80;;;;;;;;;;6279852;28;20082;-76
2023/01/24 14:06:57;;;;;;;0.40;0.40;;;;;;;;;;6272112;28;20384;-76
2023/01/24 14:09:59;;;;;;;2.13;1.95;;;;;;;;;;6281942;28;20052;-76
2023/01/24 14:12:59;;;;;;;0.55;0.55;;;;;;;;;;6287135;28;20031;-76
2023/01/24 14:15:59;;;;;;;1.37;1.37;;;;;;;;;;6291811;28;20354;-76
2023/01/24 14:19:11;;;;;;;1.27;1.23;;;;;;;;;;6277711;28;20021;-76
2023/01/24 14:22:11;;;;;;;;;;;;;;;;;;6257987;28;20028;-76
2023/01/24 14:25:27;;;;;;;0.10;0.10;;;;;;;;;;6270946;28;19946;-76
2023/01/24 14:28:39;;;;;;;1.08;1.08;;;;;;;;;;6278316;28;20820;-76
2023/01/24 14:31:40;;;;;;;1.70;1.60;;;;;;;;;;6297652;28;20079;-76
2023/01/24 14:34:47;;;;;;;2.60;2.10;;;;;;;;;;6312912;28;20031;-76
2023/01/24 14:37:47;;;;;;;2.33;1.77;;;;;;;;;;6307653;28;20056;-76
2023/01/24 14:40:51;;;;;;;2.37;2.23;;;;;;;;;;6316103;28;20038;-76
2023/01/24 14:43:51;;;;;;;1.67;1.58;;;;;;;;;;6319553;28;20110;-76
2023/01/24 14:46:53;;;;;;;2.40;2.20;;;;;;;;;;6315883;28;20032;-76
2023/01/24 14:49:55;;;;;;;0.60;0.60;;;;;;;;;;6317690;28;20522;-77
2023/01/24 14:52:55;;;;;;;2.92;2.25;;;;;;;;;;6320459;28;20042;-76
2023/01/24 14:55:59;;;;;;;1.77;1.67;;;;;;;;;;6317651;28;20016;-76
2023/01/24 14:59:12;;;;;;;1.85;1.75;;;;;;;;;;6318847;28;20083;-76
2023/01/24 15:02:16;;;;;;;1.05;1.02;;;;;;;;;;6312992;28;20107;-76
2023/01/24 15:05:22;;;;;;;1.42;1.42;;;;;;;;;;6312782;28;20012;-76
2023/01/24 15:08:24;;;;;;;1.65;0.88;;;;;;;;;;6318005;28;20028;-76
2023/01/24 15:11:24;;;;;;;;;;;;;;;;;;6317929;28;20479;-76
2023/01/24 15:14:24;;;;;;;0.68;0.68;;;;;;;;;;6317497;28;20025;-76
2023/01/24 15:17:26;;;;;;;3.47;3.33;;;;;;;;;;6310794;28;20020;-76
2023/01/24 15:20:27;;;;;;;4.25;1.38;;;;;;;;;;6315941;28;20027;-76
2023/01/24 15:23:29;;;;;;;0.85;0.85;;;;;;;;;;6312963;28;20024;-76
2023/01/24 15:26:32;;;;;;;1.05;1.05;;;;;;;;;;6320424;28;20024;-79
2023/01/24 15:29:43;;;;;;;0.50;0.50;;;;;;;;;;6314894;28;20369;-76
2023/01/24 15:32:49;;;;;;;0.20;0.20;;;;;;;;;;6279721;28;20143;-76
2023/01/24 15:35:50;;;;;;;3.50;3.22;;;;;;;;;;6297295;28;20015;-76
2023/01/24 15:38:54;;;;;;;1.60;1.50;;;;;;;;;;6288530;28;20519;-77
2023/01/24 15:45:17;;;;;;;2.40;2.30;;;;;;;;;;6287710;28;20029;-76
2023/01/24 15:48:20;;;;;;;1.05;1.05;;;;;;;;;;6287156;28;20020;-76
2023/01/24 15:51:34;;;;;;;5.93;1.85;;;;;;;;;;6268245;28;20109;-76
2023/01/24 15:54:35;;;;;;;0.45;0.45;;;;;;;;;;6269126;28;20030;-76
2023/01/24 15:57:37;;;;;;;2.40;2.25;;;;;;;;;;6262049;28;20012;-76
2023/01/24 16:00:37;;;;;;;;;;;;;;;;;;6256306;28;20032;-77
2023/01/24 16:03:37;;;;;;;6.55;3.30;;;;;;;;;;6275910;28;20015;-76
2023/01/24 16:06:38;;;;;;;3.10;2.83;;;;;;;;;;6278355;28;20048;-77
2023/01/24 16:09:38;;;;;;;0.47;0.47;;;;;;;;;;6279238;28;20063;-76
2023/01/24 16:12:38;;;;;;;0.40;0.40;;;;;;;;;;6282197;28;20008;-76
2023/01/24 16:15:39;;;;;;;1.80;1.70;;;;;;;;;;6271020;28;20021;-78
2023/01/24 16:18:40;;;;;;;4.50;2.20;;;;;;;;;;6265167;28;20093;-78
2023/01/24 16:21:41;;;;;;;0.98;0.95;;;;;;;;;;6266469;28;20584;-77
2023/01/24 16:24:41;;;;;;;0.63;0.63;;;;;;;;;;6262617;28;20020;-76
2023/01/24 16:27:42;;;;;;;1.67;1.60;;;;;;;;;;6275789;28;20448;-77
2023/01/24 16:30:42;;;;;;;4.73;1.60;;;;;;;;;;6258443;28;20048;-78
2023/01/24 16:33:43;;;;;;;1.50;1.40;;;;;;;;;;6278863;28;20043;-78
2023/01/24 16:36:43;;;;;;;0.43;0.43;;;;;;;;;;6276949;28;20044;-76
2023/01/24 16:39:44;;;;;;;0.37;0.37;;;;;;;;;;6273816;28;20016;-76
2023/01/24 16:42:45;;;;;;;1.52;1.50;;;;;;;;;;6274920;28;20064;-77
2023/01/24 16:45:46;;;;;;;1.48;1.23;;;;;;;;;;6275314;28;20054;-76
2023/01/24 16:48:47;;;;;;;1.17;1.17;;;;;;;;;;6278107;28;20028;-76
2023/01/24 16:51:47;;;;;;;0.82;0.82;;;;;;;;;;6276494;28;20028;-76
2023/01/24 16:54:47;;;;;;;2.30;2.20;;;;;;;;;;6295522;28;20029;-76
2023/01/24 16:57:47;;;;;;;3.07;2.87;;;;;;;;;;6274975;28;20057;-77
2023/01/24 17:00:48;;;;;;;3.08;2.80;;;;;;;;;;6273085;28;20059;-78
2023/01/24 17:03:52;;;;;;;1.50;1.47;;;;;;;;;;6278332;28;20434;-78
2023/01/24 17:06:52;;;;;;;0.20;0.20;;;;;;;;;;6289568;28;20025;-77
2023/01/24 17:09:52;;;;;;;1.60;1.50;;;;;;;;;;6289058;28;20577;-77
2023/01/24 17:12:53;;;;;;;1.40;1.27;;;;;;;;;;6277762;28;20097;-78
2023/01/24 17:15:53;;;;;;;1.57;1.50;;;;;;;;;;6270598;28;20025;-77
2023/01/24 17:18:53;;;;;;;0.40;0.40;;;;;;;;;;6285086;28;20017;-77
2023/01/24 17:21:53;;;;;;;0.77;0.77;;;;;;;;;;6293251;28;20528;-77
2023/01/24 17:24:53;;;;;;;0.33;0.33;;;;;;;;;;6292273;28;20048;-78
2023/01/24 17:27:54;;;;;;;0.73;0.73;;;;;;;;;;6284156;28;20020;-78
2023/01/24 17:30:54;;;;;;;0.67;0.67;;;;;;;;;;6275046;28;20045;-78
2023/01/24 17:33:55;;;;;;;0.77;0.77;;;;;;;;;;6256616;28;20059;-78
2023/01/24 17:36:55;;;;;;;0.70;0.70;;;;;;;;;;6286853;28;20028;-78
2023/01/24 17:39:55;;;;;;;1.87;1.70;;;;;;;;;;6261302;28;20059;-78
2023/01/24 17:42:55;;;;;;;3.37;3.13;;;;;;;;;;6266923;28;20028;-78
2023/01/24 17:45:57;;;;;;;1.70;1.60;;;;;;;;;;6279435;28;20085;-78
2023/01/24 17:48:58;;;;;;;1.15;1.15;;;;;;;;;;6278837;28;20077;-78
2023/01/24 17:51:58;;;;;;;2.80;2.60;;;;;;;;;;6259354;28;20020;-78
2023/01/24 17:54:58;;;;;;;1.03;1.03;;;;;;;;;;6279501;28;20028;-78
2023/01/24 17:57:58;;;;;;;4.30;3.93;;;;;;;;;;6256589;28;20021;-78
2023/01/24 18:00:59;;;;;;;0.30;0.30;;;;;;;;;;6264081;28;20453;-78
2023/01/24 18:03:59;;;;;;;3.30;2.60;;;;;;;;;;6284232;28;20423;-78
2023/01/24 18:06:59;;;;;;;0.77;0.77;;;;;;;;;;6284000;28;20388;-78
2023/01/24 18:10:00;;;;;;;0.30;0.30;;;;;;;;;;6281996;28;20032;-79
2023/01/24 18:13:00;;;;;;;1.15;1.15;;;;;;;;;;6277647;28;20425;-78
2023/01/24 18:16:01;;;;;;;9.63;2.33;;;;;;;;;;6263195;28;20027;-78
2023/01/24 18:19:01;;;;;;;0.40;0.40;;;;;;;;;;6275821;28;20388;-78
2023/01/24 18:22:01;;;;;;;1.83;1.73;;;;;;;;;;6280348;28;20028;-78
2023/01/24 18:25:01;;;;;;;0.30;0.30;;;;;;;;;;6285073;28;20012;-78
2023/01/24 18:28:02;;;;;;;6.20;2.70;;;;;;;;;;6266273;28;20059;-78
2023/01/24 18:31:06;;;;;;;2.20;2.10;;;;;;;;;;6277137;28;20631;-79
2023/01/24 18:34:09;;;;;;;1.40;1.35;;;;;;;;;;6285071;28;20032;-79
2023/01/24 18:37:09;;;;;;;2.80;2.55;;;;;;;;;;6270140;28;20029;-77
2023/01/24 18:40:09;;;;;;;17.57;2.33;;;;;;;;;;6273308;28;20089;-78
2023/01/24 18:43:11;;;;;;;0.90;0.90;;;;;;;;;;6276304;28;20017;-78
2023/01/24 18:46:12;;;;;;;0.90;0.90;;;;;;;;;;6271922;28;20383;-78
2023/01/24 18:49:12;;;;;;;2.40;2.30;;;;;;;;;;6290512;28;20016;-79
2023/01/24 18:52:12;;;;;;;1.47;1.37;;;;;;;;;;6293233;28;20348;-78
2023/01/24 18:55:14;;;;;;;4.53;3.33;;;;;;;;;;6278418;28;20504;-78
2023/01/24 18:58:15;;;;;;;1.45;1.35;;;;;;;;;;6298455;28;20024;-78
2023/01/24 19:01:16;;;;;;;2.55;2.45;;;;;;;;;;6270606;28;20139;-78